Time;durP1;ratioP1;P1;durP2;ratioP2;P2;SDS_P1;SDS_P2;PMS_P1;PMS_P2;Temp;Humidity;BMP_temperature;BMP_pressure;BME280_temperature;BME280_humidity;BME280_pressure;Samples;Min_cycle;Max_cycle;Signal;HPM_P1;HPM_P2
2023/09/10 00:01:56;;;;;;;32.10;24.90;;;;;;;15.46;87.29;100564.27;130638;1254;114718;-76
2023/09/10 00:04:58;;;;;;;37.90;27.50;;;;;;;15.45;87.43;100562.39;130148;1261;115170;-77
2023/09/10 00:08:00;;;;;;;34.60;26.80;;;;;;;15.44;87.47;100563.52;130626;1258;114737;-77
2023/09/10 00:11:04;;;;;;;29.00;23.70;;;;;;;15.41;87.26;100559.03;130433;1269;114897;-76
2023/09/10 00:14:07;;;;;;;28.70;24.20;;;;;;;15.37;87.17;100556.61;130378;1257;114878;-76
2023/09/10 00:17:09;;;;;;;30.00;24.40;;;;;;;15.34;87.15;100557.15;130330;1276;114769;-76
2023/09/10 00:20:11;;;;;;;30.50;22.70;;;;;;;15.30;87.00;100558.34;130349;1259;114833;-76
2023/09/10 00:23:14;;;;;;;30.30;24.00;;;;;;;15.25;86.89;100564.38;130298;1258;128922;-76
2023/09/10 00:26:16;;;;;;;33.60;24.80;;;;;;;15.20;87.30;100566.33;130244;1257;114837;-76
2023/09/10 00:29:18;;;;;;;31.80;24.10;;;;;;;15.16;87.07;100564.95;130375;1257;114731;-75
2023/09/10 00:32:21;;;;;;;31.20;24.10;;;;;;;15.12;86.94;100558.04;130384;1276;115169;-75
2023/09/10 00:35:25;;;;;;;29.10;23.00;;;;;;;15.08;87.09;100561.92;130319;1257;114802;-75
2023/09/10 00:38:27;;;;;;;34.30;26.80;;;;;;;15.03;87.38;100562.56;130299;1276;114745;-76
2023/09/10 00:41:29;;;;;;;33.70;27.00;;;;;;;15.02;88.22;100563.14;130252;1257;114888;-76
2023/09/10 00:44:31;;;;;;;35.40;24.90;;;;;;;15.02;88.20;100559.52;130346;1253;115267;-75
2023/09/10 00:47:35;;;;;;;32.90;24.00;;;;;;;15.00;88.14;100560.77;130352;1257;115343;-74
2023/09/10 00:50:37;;;;;;;37.30;24.50;;;;;;;14.95;87.76;100557.82;130417;1257;114843;-75
2023/09/10 00:53:40;;;;;;;30.50;23.70;;;;;;;14.91;87.81;100561.14;130432;1252;114821;-75
2023/09/10 00:56:45;;;;;;;26.80;23.40;;;;;;;14.87;87.88;100564.79;130466;1254;115150;-75
2023/09/10 00:59:47;;;;;;;28.80;22.20;;;;;;;14.82;87.79;100559.91;130299;1275;130025;-76
2023/09/10 01:02:50;;;;;;;29.20;22.90;;;;;;;14.78;87.68;100563.42;130687;1254;115384;-75
2023/09/10 01:05:53;;;;;;;30.30;23.80;;;;;;;14.73;87.94;100563.19;130427;1258;115250;-76
2023/09/10 01:08:55;;;;;;;31.60;23.80;;;;;;;14.68;87.83;100566.52;130536;1269;115212;-77
2023/09/10 01:12:17;;;;;;;28.00;22.70;;;;;;;14.64;87.78;100568.60;130391;1254;114807;-76
2023/09/10 01:15:30;;;;;;;28.10;23.10;;;;;;;14.58;87.81;100567.48;130457;1254;114773;-76
2023/09/10 01:18:44;;;;;;;29.20;22.80;;;;;;;14.56;88.23;100566.91;130706;1256;127901;-77
2023/09/10 01:21:55;;;;;;;28.10;22.60;;;;;;;14.52;88.16;100564.83;130438;1267;114845;-77
2023/09/10 01:24:57;;;;;;;35.70;26.50;;;;;;;14.48;88.27;100563.61;130491;1257;114808;-76
2023/09/10 01:28:03;;;;;;;36.50;25.50;;;;;;;14.47;88.91;100563.00;130326;1257;114789;-76
2023/09/10 01:31:05;;;;;;;32.40;25.10;;;;;;;14.46;89.07;100561.95;130423;1257;114797;-76
2023/09/10 01:34:09;;;;;;;32.30;24.10;;;;;;;14.42;88.82;100564.33;130278;1257;114794;-77
2023/09/10 01:37:40;;;;;;;33.90;23.80;;;;;;;14.39;88.87;100562.87;130367;1257;115423;-76
2023/09/10 01:40:46;;;;;;;31.90;25.70;;;;;;;14.35;88.56;100562.80;130270;1256;114730;-75
2023/09/10 01:43:48;;;;;;;33.70;25.10;;;;;;;14.31;89.00;100568.05;130710;1256;114744;-75
2023/09/10 01:46:52;;;;;;;34.20;24.80;;;;;;;14.28;88.93;100566.60;130302;1253;114777;-76
2023/09/10 01:49:54;;;;;;;36.20;25.50;;;;;;;14.25;88.89;100565.70;130380;1273;114721;-75
2023/09/10 01:52:59;;;;;;;36.90;27.00;;;;;;;14.21;88.93;100563.28;130406;1270;114734;-75
2023/09/10 01:56:02;;;;;;;30.30;25.40;;;;;;;14.19;89.19;100558.74;130337;1256;114724;-76
2023/09/10 01:59:04;;;;;;;30.60;24.80;;;;;;;14.16;89.09;100560.52;130441;1254;114846;-76
2023/09/10 02:02:06;;;;;;;35.50;27.30;;;;;;;14.13;89.24;100559.46;130510;1256;114803;-76
2023/09/10 02:05:08;;;;;;;29.60;24.40;;;;;;;14.11;89.48;100557.39;130480;1271;114756;-76
2023/09/10 02:08:10;;;;;;;31.00;23.80;;;;;;;14.09;89.54;100554.27;130451;1257;128405;-76
2023/09/10 02:11:12;;;;;;;27.60;22.30;;;;;;;14.06;89.27;100557.72;130390;1256;114788;-76
2023/09/10 02:14:14;;;;;;;36.30;25.70;;;;;;;14.02;89.33;100554.73;130422;1275;115259;-76
2023/09/10 02:17:16;;;;;;;25.50;22.10;;;;;;;13.97;89.28;100556.80;130577;1257;114811;-76
2023/09/10 02:20:18;;;;;;;30.40;23.40;;;;;;;13.93;89.43;100553.99;130391;1254;115196;-77
2023/09/10 02:23:21;;;;;;;29.10;22.90;;;;;;;13.89;89.32;100552.23;130446;1253;114662;-76
2023/09/10 02:26:22;;;;;;;31.50;24.30;;;;;;;13.86;89.50;100547.95;130380;1253;114722;-75
2023/09/10 02:29:24;;;;;;;32.40;23.60;;;;;;;13.82;89.60;100550.64;130361;1258;114732;-76
2023/09/10 02:32:26;;;;;;;29.00;23.70;;;;;;;13.79;89.74;100548.13;130395;1257;114777;-75
2023/09/10 02:35:28;;;;;;;34.80;27.00;;;;;;;13.77;89.99;100547.77;130317;1273;115289;-76
2023/09/10 02:38:31;;;;;;;36.70;27.60;;;;;;;13.78;90.52;100545.71;130338;1257;114731;-76
2023/09/10 02:41:33;;;;;;;33.70;28.10;;;;;;;13.79;90.83;100542.05;130360;1269;115354;-76
2023/09/10 02:44:35;;;;;;;33.00;25.60;;;;;;;13.81;91.37;100544.27;130422;1253;114737;-75
2023/09/10 02:47:38;;;;;;;35.00;28.60;;;;;;;13.83;91.61;100541.28;130050;1257;114964;-76
2023/09/10 02:50:40;;;;;;;33.90;28.40;;;;;;;13.89;92.58;100544.14;130278;1253;114794;-76
2023/09/10 02:53:44;;;;;;;33.90;25.20;;;;;;;13.93;92.22;100545.19;130576;1254;114844;-75
2023/09/10 02:56:46;;;;;;;33.50;25.60;;;;;;;13.92;91.89;100542.58;130422;1257;114763;-75
2023/09/10 02:59:51;;;;;;;33.50;27.20;;;;;;;13.90;91.87;100545.01;130046;1257;114809;-76
2023/09/10 03:02:57;;;;;;;34.50;27.50;;;;;;;13.89;91.92;100546.69;130592;1258;114738;-75
2023/09/10 03:05:59;;;;;;;32.00;25.80;;;;;;;13.87;91.96;100543.23;130324;1253;114745;-75
2023/09/10 03:09:01;;;;;;;35.60;28.90;;;;;;;13.85;91.89;100540.99;130279;1257;115099;-75
2023/09/10 03:12:23;;;;;;;30.70;24.40;;;;;;;13.84;92.23;100539.25;130381;1254;114722;-76
2023/09/10 03:15:25;;;;;;;39.00;29.10;;;;;;;13.81;92.16;100537.79;130642;1253;115227;-76
2023/09/10 03:18:27;;;;;;;34.50;27.20;;;;;;;13.84;92.91;100536.36;130541;1253;114801;-76
2023/09/10 03:21:29;;;;;;;37.50;28.60;;;;;;;13.84;92.74;100533.33;130703;1257;114718;-76
2023/09/10 03:24:35;;;;;;;36.20;29.10;;;;;;;13.83;92.68;100531.05;130742;1253;114782;-76
2023/09/10 03:27:40;;;;;;;33.00;25.10;;;;;;;13.81;92.67;100532.09;130509;1259;114796;-77
2023/09/10 03:30:42;;;;;;;;;;;;;;;13.78;92.73;100529.75;130625;1254;127552;-75
2023/09/10 03:33:44;;;;;;;37.50;28.70;;;;;;;13.77;93.10;100528.02;130302;1253;115061;-76
2023/09/10 03:36:46;;;;;;;44.60;32.60;;;;;;;13.75;93.51;100521.86;130666;1257;114722;-76
2023/09/10 03:39:48;;;;;;;38.80;30.40;;;;;;;13.77;93.92;100522.98;130594;1262;115000;-76
2023/09/10 03:42:50;;;;;;;43.30;33.80;;;;;;;13.78;93.89;100515.02;130629;1257;114770;-76
2023/09/10 03:45:52;;;;;;;40.80;32.40;;;;;;;13.77;93.58;100517.23;130676;1254;115155;-74
2023/09/10 03:48:54;;;;;;;36.00;30.70;;;;;;;13.75;93.45;100514.86;130310;1253;114686;-75
2023/09/10 03:51:57;;;;;;;36.50;30.20;;;;;;;13.73;93.74;100517.31;130330;1260;114754;-76
2023/09/10 03:55:00;;;;;;;37.70;29.50;;;;;;;13.72;94.02;100513.92;130682;1254;115231;-76
2023/09/10 03:58:02;;;;;;;37.00;31.20;;;;;;;13.71;93.90;100510.79;130986;1253;115080;-77
2023/09/10 04:01:04;;;;;;;35.00;29.50;;;;;;;13.69;93.99;100509.24;130708;1253;115340;-77
2023/09/10 04:04:06;;;;;;;37.80;29.10;;;;;;;13.69;94.25;100509.61;130588;1257;115153;-77
2023/09/10 04:07:08;;;;;;;37.20;28.90;;;;;;;13.67;93.85;100508.64;130800;1256;114760;-76
2023/09/10 04:10:10;;;;;;;32.70;27.10;;;;;;;13.63;93.50;100505.14;130432;1254;114802;-76
2023/09/10 04:13:12;;;;;;;36.30;27.90;;;;;;;13.59;93.32;100508.08;130754;1256;114816;-76
2023/09/10 04:16:36;;;;;;;33.10;25.50;;;;;;;13.55;93.27;100501.29;130529;1255;114770;-75
2023/09/10 04:19:49;;;;;;;30.10;24.40;;;;;;;13.50;93.10;100503.02;130397;1257;114840;-76
2023/09/10 04:22:57;;;;;;;33.50;27.60;;;;;;;13.45;93.08;100505.25;130415;1259;114706;-76
2023/09/10 04:25:59;;;;;;;32.10;25.50;;;;;;;13.42;93.00;100506.67;130575;1257;114641;-76
2023/09/10 04:29:01;;;;;;;33.20;26.30;;;;;;;13.39;92.99;100504.71;130763;1255;114785;-76
2023/09/10 04:32:03;;;;;;;29.00;23.30;;;;;;;13.36;92.92;100506.63;130681;1253;128858;-75
2023/09/10 04:35:09;;;;;;;30.10;24.70;;;;;;;13.35;93.03;100513.91;130650;1257;114865;-76
2023/09/10 04:38:11;;;;;;;30.80;25.20;;;;;;;13.33;93.02;100514.17;130551;1253;114738;-77
2023/09/10 04:41:13;;;;;;;30.10;26.90;;;;;;;13.33;93.56;100515.06;130436;1257;114733;-74
2023/09/10 04:44:15;;;;;;;31.80;25.50;;;;;;;13.35;93.55;100516.19;130277;1254;114728;-75
2023/09/10 04:47:17;;;;;;;34.90;27.30;;;;;;;13.36;93.50;100518.52;130257;1254;114744;-74
2023/09/10 04:50:19;;;;;;;32.30;25.40;;;;;;;13.38;93.58;100523.44;130393;1257;116197;-75
2023/09/10 04:53:21;;;;;;;34.40;27.10;;;;;;;13.41;93.79;100526.15;130311;1253;127550;-76
2023/09/10 04:56:23;;;;;;;31.30;26.10;;;;;;;13.42;93.76;100524.27;130295;1254;115146;-75
2023/09/10 04:59:25;;;;;;;32.10;24.60;;;;;;;13.46;93.90;100530.00;130391;1257;115091;-75
2023/09/10 05:02:27;;;;;;;33.70;27.70;;;;;;;13.50;94.11;100529.23;130087;1254;114834;-75
2023/09/10 05:05:29;;;;;;;29.90;26.50;;;;;;;13.53;94.27;100525.60;130381;1257;114782;-77
2023/09/10 05:08:31;;;;;;;31.90;25.90;;;;;;;13.59;94.41;100526.57;130406;1254;114878;-79
2023/09/10 05:11:33;;;;;;;35.50;29.00;;;;;;;13.64;94.55;100532.15;130548;1257;115603;-80
2023/09/10 05:14:35;;;;;;;34.80;28.40;;;;;;;13.71;94.87;100530.67;130301;1253;114829;-81
2023/09/10 05:17:38;;;;;;;31.40;27.30;;;;;;;13.79;95.05;100527.70;130545;1269;114799;-76
2023/09/10 05:20:41;;;;;;;35.80;29.30;;;;;;;13.87;95.31;100529.91;130693;1256;115271;-76
2023/09/10 05:23:43;;;;;;;41.50;31.50;;;;;;;14.01;96.09;100527.51;130807;1257;114729;-75
2023/09/10 05:26:45;;;;;;;38.30;30.70;;;;;;;14.12;96.55;100524.32;130956;1257;114735;-75
2023/09/10 05:29:47;;;;;;;40.50;32.70;;;;;;;14.28;96.71;100529.83;131136;1256;115404;-75
2023/09/10 05:32:49;;;;;;;41.50;32.80;;;;;;;14.42;97.17;100528.58;131809;1257;114609;-74
2023/09/10 05:35:57;;;;;;;38.90;31.60;;;;;;;14.55;97.11;100529.38;132298;1256;114797;-74
2023/09/10 05:38:59;;;;;;;39.70;31.20;;;;;;;14.69;96.82;100532.48;131968;1257;128921;-75
2023/09/10 05:42:02;;;;;;;38.80;32.60;;;;;;;14.81;96.90;100533.76;131029;1253;114715;-75
2023/09/10 05:45:04;;;;;;;37.20;33.20;;;;;;;14.92;96.92;100529.08;130449;1253;114767;-74
2023/09/10 05:48:06;;;;;;;39.60;32.80;;;;;;;15.06;97.20;100529.98;130477;1258;114891;-74
2023/09/10 05:51:09;;;;;;;39.60;32.70;;;;;;;15.22;97.64;100533.08;130443;1257;114722;-74
2023/09/10 05:54:11;;;;;;;44.90;31.50;;;;;;;15.38;97.67;100532.77;130438;1253;114715;-74
2023/09/10 05:57:13;;;;;;;37.30;30.30;;;;;;;15.54;97.25;100536.80;130413;1267;114721;-74
2023/09/10 06:00:15;;;;;;;39.70;30.90;;;;;;;15.68;97.38;100533.84;130351;1255;114779;-74
2023/09/10 06:03:17;;;;;;;39.50;31.70;;;;;;;15.83;97.27;100536.44;130654;1253;114694;-73
2023/09/10 06:06:19;;;;;;;36.50;30.50;;;;;;;15.99;97.25;100536.99;130532;1256;115265;-73
2023/09/10 06:09:21;;;;;;;35.20;29.80;;;;;;;16.15;97.18;100535.89;130346;1256;115363;-74
2023/09/10 06:12:23;;;;;;;36.00;29.20;;;;;;;16.33;97.05;100537.73;130441;1254;114693;-74
2023/09/10 06:15:26;;;;;;;38.00;27.90;;;;;;;16.53;96.98;100538.17;130374;1256;114708;-74
2023/09/10 06:18:28;;;;;;;36.30;27.20;;;;;;;16.77;96.87;100538.59;130291;1254;114888;-73
2023/09/10 06:21:31;;;;;;;33.70;26.70;;;;;;;17.06;96.50;100541.44;130269;1254;114738;-73
2023/09/10 06:24:34;;;;;;;28.90;24.70;;;;;;;17.38;96.15;100546.88;130527;1254;114804;-73
2023/09/10 06:27:35;;;;;;;28.30;23.80;;;;;;;17.63;95.18;100547.89;130525;1257;115167;-72
2023/09/10 06:30:38;;;;;;;28.80;24.60;;;;;;;17.90;94.91;100542.45;130350;1264;115109;-73
2023/09/10 06:33:40;;;;;;;32.10;23.50;;;;;;;18.20;94.82;100547.36;130584;1254;114759;-75
2023/09/10 06:36:42;;;;;;;28.30;23.80;;;;;;;18.49;94.26;100543.32;130474;1254;114824;-74
2023/09/10 06:39:48;;;;;;;28.00;22.20;;;;;;;18.77;93.67;100541.48;130358;1254;115436;-75
2023/09/10 06:42:50;;;;;;;29.40;21.70;;;;;;;19.02;93.29;100540.95;130402;1254;114689;-74
2023/09/10 06:45:53;;;;;;;30.70;21.30;;;;;;;19.24;92.59;100536.25;130511;1252;114904;-75
2023/09/10 06:48:55;;;;;;;25.30;21.50;;;;;;;19.43;92.22;100533.78;130137;1275;116026;-74
2023/09/10 06:51:57;;;;;;;25.90;21.40;;;;;;;19.66;91.72;100531.89;130449;1256;114796;-74
2023/09/10 06:55:01;;;;;;;23.10;20.50;;;;;;;19.91;91.41;100533.30;130470;1259;114789;-74
2023/09/10 06:58:03;;;;;;;25.90;18.50;;;;;;;20.13;90.68;100535.05;130314;1258;115087;-74
2023/09/10 07:01:05;;;;;;;22.30;18.60;;;;;;;20.35;90.34;100535.13;130421;1253;114623;-76
2023/09/10 07:04:21;;;;;;;19.80;17.10;;;;;;;20.59;89.96;100535.00;130285;1269;114730;-75
2023/09/10 07:07:23;;;;;;;18.00;15.20;;;;;;;20.83;89.03;100537.11;130254;1258;115237;-74
2023/09/10 07:10:25;;;;;;;18.10;15.40;;;;;;;21.11;88.68;100538.48;130277;1257;116300;-75
2023/09/10 07:13:29;;;;;;;16.60;13.70;;;;;;;21.33;87.23;100542.97;130382;1256;114734;-74
2023/09/10 07:16:33;;;;;;;18.00;13.80;;;;;;;21.55;86.89;100544.48;130330;1257;115900;-75
2023/09/10 07:19:35;;;;;;;;;;;;;;;21.77;85.78;100546.46;130493;1256;114726;-75
2023/09/10 07:22:37;;;;;;;16.00;12.90;;;;;;;21.95;84.63;100545.91;130350;1258;114734;-74
2023/09/10 07:25:39;;;;;;;21.30;13.60;;;;;;;22.12;84.46;100543.05;130386;1254;114779;-74
2023/09/10 07:28:41;;;;;;;14.90;13.40;;;;;;;22.38;83.96;100547.33;130270;1258;114664;-73
2023/09/10 07:31:43;;;;;;;16.90;13.50;;;;;;;22.62;83.30;100548.65;130301;1259;114660;-73
2023/09/10 07:34:45;;;;;;;18.40;14.40;;;;;;;22.90;82.90;100546.54;130389;1257;114799;-73
2023/09/10 07:37:52;;;;;;;15.10;13.00;;;;;;;23.19;81.79;100548.64;130267;1276;115434;-72
2023/09/10 07:40:54;;;;;;;15.10;11.90;;;;;;;23.51;81.16;100542.18;130264;1255;114874;-73
2023/09/10 07:43:56;;;;;;;17.80;13.60;;;;;;;23.87;80.16;100544.21;130196;1268;114954;-75
2023/09/10 07:47:01;;;;;;;15.70;12.90;;;;;;;24.08;78.40;100544.14;130328;1255;114690;-74
2023/09/10 07:50:04;;;;;;;14.20;12.60;;;;;;;24.31;77.61;100544.30;130233;1257;115279;-74
2023/09/10 07:53:05;;;;;;;17.80;12.10;;;;;;;24.60;77.42;100539.64;130370;1273;115312;-75
2023/09/10 07:56:07;;;;;;;14.20;10.50;;;;;;;24.96;76.84;100536.04;130437;1275;114838;-74
2023/09/10 07:59:11;;;;;;;13.90;11.00;;;;;;;25.33;76.10;100535.04;130148;1259;114880;-73
2023/09/10 08:02:13;;;;;;;15.00;11.50;;;;;;;25.67;74.70;100533.14;130379;1256;114958;-72
2023/09/10 08:05:16;;;;;;;15.60;11.50;;;;;;;26.01;73.82;100527.61;130416;1257;114722;-72
2023/09/10 08:08:19;;;;;;;12.10;10.80;;;;;;;26.26;72.79;100525.45;130556;1254;114782;-72
2023/09/10 08:11:32;;;;;;;13.80;10.80;;;;;;;26.57;72.93;100527.06;130319;1256;115236;-73
2023/09/10 08:14:35;;;;;;;11.90;10.60;;;;;;;26.91;71.95;100524.50;130409;1257;114731;-73
2023/09/10 08:17:37;;;;;;;12.20;10.80;;;;;;;27.17;71.15;100519.52;130359;1256;115377;-73
2023/09/10 08:20:42;;;;;;;12.50;11.30;;;;;;;27.36;70.51;100515.45;130262;1256;114716;-73
2023/09/10 08:23:44;;;;;;;13.80;9.80;;;;;;;27.52;69.78;100513.37;130409;1256;120118;-71
2023/09/10 08:26:48;;;;;;;12.00;10.50;;;;;;;27.70;69.04;100511.29;130510;1257;114727;-72
2023/09/10 08:29:50;;;;;;;11.80;10.10;;;;;;;27.81;67.80;100507.75;130315;1256;114780;-72
2023/09/10 08:32:52;;;;;;;12.90;10.40;;;;;;;27.87;67.18;100504.30;130379;1254;114762;-72
2023/09/10 08:35:55;;;;;;;11.30;10.10;;;;;;;27.96;67.31;100503.44;130509;1254;114756;-74
2023/09/10 08:38:57;;;;;;;10.60;9.60;;;;;;;28.01;66.65;100498.98;130448;1256;114728;-72
2023/09/10 08:42:16;;;;;;;14.70;10.10;;;;;;;27.97;66.13;100504.02;130523;1257;114737;-72
2023/09/10 08:45:19;;;;;;;11.90;9.70;;;;;;;27.89;65.36;100503.20;130369;1254;115339;-72
2023/09/10 08:48:22;;;;;;;10.90;7.00;;;;;;;27.82;64.79;100504.38;130456;1256;115202;-75
2023/09/10 08:51:25;;;;;;;11.30;7.00;;;;;;;27.73;64.03;100501.02;130446;1256;114738;-72
2023/09/10 08:54:28;;;;;;;7.60;6.60;;;;;;;27.64;63.85;100503.36;130580;1256;115233;-72
2023/09/10 08:57:31;;;;;;;12.30;8.90;;;;;;;27.57;63.40;100497.41;130412;1256;115079;-73
2023/09/10 09:00:33;;;;;;;6.70;4.70;;;;;;;27.53;62.89;100496.42;130408;1260;116449;-72
2023/09/10 09:03:36;;;;;;;11.10;8.90;;;;;;;27.56;63.09;100500.28;130598;1275;114715;-72
2023/09/10 09:06:40;;;;;;;4.20;3.80;;;;;;;27.60;62.55;100501.42;130509;1256;114699;-73
2023/09/10 09:09:45;;;;;;;5.10;3.30;;;;;;;27.63;62.39;100500.66;130437;1257;114776;-72
2023/09/10 09:12:46;;;;;;;;;;;;;;;27.71;61.58;100499.58;130023;1274;114867;-73
2023/09/10 09:15:50;;;;;;;3.10;2.80;;;;;;;27.75;61.19;100500.16;130249;1254;115195;-73
2023/09/10 09:18:52;;;;;;;8.90;6.00;;;;;;;27.81;60.97;100498.91;130454;1259;114747;-72
2023/09/10 09:21:55;;;;;;;8.50;7.30;;;;;;;27.86;60.57;100501.27;130419;1275;114696;-72
2023/09/10 09:24:58;;;;;;;2.70;2.10;;;;;;;27.92;60.14;100505.87;128000;1268;3142002;-72
2023/09/10 09:28:00;;;;;;;9.80;5.60;;;;;;;27.97;60.01;100505.70;130251;1271;114788;-72
2023/09/10 09:31:07;;;;;;;2.90;2.70;;;;;;;27.97;59.90;100499.81;130335;1253;114827;-72
2023/09/10 09:34:10;;;;;;;5.80;4.40;;;;;;;27.95;59.45;100501.52;130339;1258;120281;-68
2023/09/10 09:37:19;;;;;;;2.50;2.30;;;;;;;27.90;58.87;100500.63;130213;1272;115379;-69
2023/09/10 09:40:21;;;;;;;8.50;5.20;;;;;;;27.84;58.60;100497.52;130235;1259;114812;-71
2023/09/10 09:43:23;;;;;;;2.00;1.80;;;;;;;27.82;58.69;100494.48;130425;1259;114831;-70
2023/09/10 09:46:31;;;;;;;4.20;3.80;;;;;;;27.80;58.87;100493.34;130407;1259;115244;-70
2023/09/10 09:49:43;;;;;;;3.00;2.80;;;;;;;27.79;58.52;100492.02;130449;1258;115340;-70
2023/09/10 09:52:52;;;;;;;4.30;2.80;;;;;;;27.78;58.46;100488.52;130441;1275;119967;-72
2023/09/10 09:55:56;;;;;;;2.60;2.40;;;;;;;27.78;58.76;100486.65;130266;1258;114835;-73
2023/09/10 09:58:58;;;;;;;2.50;2.30;;;;;;;27.79;58.61;100481.91;130485;1261;114737;-73
2023/09/10 10:02:03;;;;;;;5.00;2.10;;;;;;;27.78;58.18;100480.23;130434;1258;114714;-73
2023/09/10 10:05:07;;;;;;;2.60;2.40;;;;;;;27.74;57.73;100475.67;130038;1259;114913;-74
2023/09/10 10:08:10;;;;;;;4.50;2.50;;;;;;;27.75;57.68;100478.21;130068;1275;119501;-74
2023/09/10 10:11:12;;;;;;;9.00;2.30;;;;;;;27.77;57.84;100473.08;130519;1276;114749;-73
2023/09/10 10:14:14;;;;;;;1.80;1.70;;;;;;;27.78;57.37;100470.91;130414;1259;115199;-73
2023/09/10 10:17:16;;;;;;;7.10;5.60;;;;;;;27.78;56.94;100468.83;130319;1259;114709;-74
2023/09/10 10:20:20;;;;;;;9.60;7.00;;;;;;;27.75;56.32;100464.95;130331;1254;115311;-72
2023/09/10 10:23:22;;;;;;;8.40;5.40;;;;;;;27.70;56.00;100458.79;130259;1276;115139;-64
2023/09/10 10:26:24;;;;;;;6.00;5.40;;;;;;;27.65;55.87;100459.79;130298;1258;114801;-67
2023/09/10 10:29:27;;;;;;;7.00;5.40;;;;;;;27.57;56.14;100458.17;130258;1276;120207;-67
2023/09/10 10:32:39;;;;;;;9.10;6.40;;;;;;;27.52;56.34;100461.23;130204;1259;114839;-66
2023/09/10 10:35:44;;;;;;;7.20;4.50;;;;;;;27.51;55.78;100452.19;130294;1254;114711;-67
2023/09/10 10:38:46;;;;;;;10.00;6.00;;;;;;;27.50;56.04;100445.98;130667;1268;114817;-69
2023/09/10 10:41:50;;;;;;;9.50;5.40;;;;;;;27.47;55.17;100443.91;130597;1257;114782;-68
2023/09/10 10:44:52;;;;;;;9.80;5.70;;;;;;;27.45;55.20;100443.05;130124;1276;118907;-69
2023/09/10 10:47:59;;;;;;;9.20;5.20;;;;;;;27.45;55.18;100438.27;130452;1256;114846;-67
2023/09/10 10:51:02;;;;;;;8.70;6.40;;;;;;;27.48;55.34;100436.71;130404;1253;114719;-68
2023/09/10 10:54:06;;;;;;;12.10;5.90;;;;;;;27.49;55.38;100437.95;129937;1257;115054;-70
2023/09/10 10:57:09;;;;;;;8.70;4.70;;;;;;;27.50;55.05;100435.45;129770;1268;114934;-67
2023/09/10 11:00:12;;;;;;;6.40;5.20;;;;;;;27.50;54.59;100436.41;129713;1254;119955;-66
2023/09/10 11:03:16;;;;;;;8.00;5.30;;;;;;;27.49;53.43;100435.46;130193;1262;114846;-67
2023/09/10 11:06:18;;;;;;;6.40;5.20;;;;;;;27.49;52.73;100434.17;130510;1257;115330;-68
2023/09/10 11:09:36;;;;;;;6.10;4.40;;;;;;;27.47;52.14;100432.71;130449;1268;114724;-66
2023/09/10 11:12:38;;;;;;;5.70;4.80;;;;;;;27.48;52.32;100429.71;130113;1253;114831;-68
2023/09/10 11:16:05;;;;;;;6.10;4.70;;;;;;;27.47;51.95;100427.10;130393;1275;114640;-69
2023/09/10 11:19:43;;;;;;;7.60;4.80;;;;;;;27.44;51.03;100427.52;130531;1254;115045;-69
2023/09/10 11:23:12;;;;;;;5.90;4.00;;;;;;;27.41;51.12;100424.61;130450;1257;114813;-70
2023/09/10 11:26:14;;;;;;;7.30;4.60;;;;;;;27.40;50.85;100425.83;130475;1256;114727;-70
2023/09/10 11:29:18;;;;;;;7.80;5.40;;;;;;;27.36;49.95;100425.59;130429;1275;114776;-70
2023/09/10 11:32:20;;;;;;;5.90;5.10;;;;;;;27.33;49.03;100422.03;130466;1276;114862;-71
2023/09/10 11:35:22;;;;;;;6.10;4.90;;;;;;;27.34;49.32;100421.02;130497;1257;115405;-72
2023/09/10 11:38:28;;;;;;;8.70;5.80;;;;;;;27.35;49.45;100419.81;130530;1259;114744;-74
2023/09/10 11:41:30;;;;;;;6.40;4.70;;;;;;;27.34;49.62;100420.61;130222;1274;115032;-69
2023/09/10 11:44:32;;;;;;;5.60;4.30;;;;;;;27.34;50.09;100419.54;130536;1256;114747;-69
2023/09/10 11:47:35;;;;;;;5.40;4.80;;;;;;;27.35;49.91;100416.14;130118;1275;114739;-66
2023/09/10 11:50:37;;;;;;;9.30;5.20;;;;;;;27.36;49.66;100416.92;130422;1254;114804;-66
2023/09/10 11:53:39;;;;;;;9.20;5.10;;;;;;;27.39;49.71;100416.17;130520;1256;114724;-66
2023/09/10 11:56:41;;;;;;;13.80;11.60;;;;;;;27.42;49.51;100417.08;130564;1260;114817;-69
2023/09/10 11:59:49;;;;;;;10.80;6.00;;;;;;;27.44;48.60;100414.00;130479;1260;114728;-69
2023/09/10 12:02:52;;;;;;;9.40;5.10;;;;;;;27.45;48.20;100411.29;130503;1257;114696;-67
2023/09/10 12:05:54;;;;;;;7.20;5.00;;;;;;;27.44;47.79;100410.27;130007;1275;115491;-67
2023/09/10 12:08:57;;;;;;;5.50;4.80;;;;;;;27.45;48.04;100409.46;130079;1272;114730;-65
2023/09/10 12:12:22;;;;;;;8.30;5.00;;;;;;;27.45;47.31;100403.63;130106;1254;114740;-66
2023/09/10 12:15:26;;;;;;;6.90;6.00;;;;;;;27.45;47.57;100401.89;130117;1256;119627;-66
2023/09/10 12:18:28;;;;;;;6.50;5.70;;;;;;;27.47;47.49;100403.63;130032;1260;114753;-68
2023/09/10 12:21:30;;;;;;;6.80;5.40;;;;;;;27.45;46.80;100397.34;130348;1254;115269;-66
2023/09/10 12:24:32;;;;;;;7.40;5.60;;;;;;;27.44;46.50;100395.27;130391;1254;114724;-67
2023/09/10 12:27:35;;;;;;;5.40;4.90;;;;;;;27.45;45.65;100390.58;130150;1259;114747;-66
2023/09/10 12:30:37;;;;;;;6.60;5.30;;;;;;;27.45;45.80;100388.90;130402;1275;115260;-66
2023/09/10 12:33:40;;;;;;;6.00;5.40;;;;;;;27.47;46.07;100387.59;130654;1256;114802;-66
2023/09/10 12:36:42;;;;;;;6.00;5.30;;;;;;;27.48;46.16;100387.10;130311;1268;114752;-66
2023/09/10 12:39:47;;;;;;;8.00;6.50;;;;;;;27.50;46.23;100385.74;130368;1256;114808;-65
2023/09/10 12:42:49;;;;;;;7.20;5.30;;;;;;;27.51;46.15;100386.40;129758;1275;114977;-66
2023/09/10 12:45:51;;;;;;;6.80;5.70;;;;;;;27.51;46.34;100385.67;130090;1254;114772;-66
2023/09/10 12:48:54;;;;;;;8.60;6.00;;;;;;;27.50;46.29;100385.05;129954;1256;115198;-66
2023/09/10 12:51:56;;;;;;;7.60;5.40;;;;;;;27.49;46.10;100382.58;130009;1276;114740;-64
2023/09/10 12:54:58;;;;;;;7.10;6.20;;;;;;;27.50;45.52;100384.88;129974;1258;120004;-65
2023/09/10 12:58:00;;;;;;;9.50;5.10;;;;;;;27.52;45.48;100381.49;129909;1276;114744;-65
2023/09/10 13:01:02;;;;;;;6.90;5.10;;;;;;;27.53;45.46;100376.60;129984;1258;114928;-70
2023/09/10 13:04:04;;;;;;;7.20;6.40;;;;;;;27.52;45.57;100374.30;130538;1257;114746;-73
2023/09/10 13:07:10;;;;;;;6.60;5.50;;;;;;;27.53;45.64;100374.92;130418;1259;114791;-69
2023/09/10 13:10:12;;;;;;;6.70;5.40;;;;;;;27.53;45.90;100371.07;130130;1267;114724;-66
2023/09/10 13:13:15;;;;;;;7.70;5.60;;;;;;;27.51;45.86;100373.49;130385;1264;114699;-69
2023/09/10 13:16:17;;;;;;;5.90;4.80;;;;;;;27.49;45.83;100369.89;130441;1256;114715;-72
2023/09/10 13:19:21;;;;;;;7.30;5.60;;;;;;;27.48;45.71;100366.39;130525;1260;114726;-70
2023/09/10 13:22:23;;;;;;;8.30;6.80;;;;;;;27.47;45.51;100363.98;130453;1254;114712;-76
2023/09/10 13:25:27;;;;;;;10.90;5.20;;;;;;;27.47;45.16;100365.83;130477;1256;115176;-73
2023/09/10 13:28:29;;;;;;;7.40;4.80;;;;;;;27.48;45.00;100368.21;130559;1266;115179;-72
2023/09/10 13:31:31;;;;;;;5.40;4.80;;;;;;;27.50;44.90;100367.27;130610;1256;114657;-78
2023/09/10 13:34:33;;;;;;;6.80;4.70;;;;;;;27.53;44.26;100364.73;130546;1257;114801;-78
2023/09/10 13:37:37;;;;;;;8.30;5.00;;;;;;;27.55;43.91;100365.91;130496;1264;114830;-71
2023/09/10 13:40:41;;;;;;;8.00;5.30;;;;;;;27.58;43.87;100363.69;130494;1259;114695;-67
2023/09/10 13:43:43;;;;;;;;;;;;;;;27.60;43.69;100360.00;130319;1256;116213;-78